Terminal Aerodrome Forecast
Issued by NWS

Home | Current Version | Previous Version | Text Only | Print | Product List | Glossary On
Versions: 1 2 3 4 5 6 7 8 9 10 11 12 13 14
558
FTUS46 KPDT 110524
TAFRDM
TAF
KRDM 110524Z 1106/1206 15004KT P6SM OVC100
     FM111400 VRB04KT P6SM OVC070
     FM111800 VRB05KT P6SM SCT100 BKN180
     FM112300 VRB04KT P6SM OVC120
     FM120200 VRB04KT P6SM OVC080=

USA.gov is the U.S. government's official web portal to all federal, state and local government web resources and services.